createdAt,value
2018-11-07T00:00:38.142Z,12.20
2018-11-07T00:03:20.270Z,12.20
2018-11-07T00:06:02.551Z,12.20
2018-11-07T00:08:44.508Z,12.20
2018-11-07T00:11:26.241Z,12.20
2018-11-07T00:14:08.458Z,12.20
2018-11-07T00:16:50.348Z,12.20
2018-11-07T00:19:32.581Z,12.10
2018-11-07T00:22:14.812Z,12.10
2018-11-07T00:24:56.279Z,12.10
2018-11-07T00:27:38.398Z,12.10
2018-11-07T00:30:20.487Z,12.10
2018-11-07T00:33:02.394Z,12.00
2018-11-07T00:35:44.383Z,12.00
2018-11-07T00:38:27.568Z,12.10
2018-11-07T00:41:09.579Z,12.10
2018-11-07T00:43:50.969Z,12.00
2018-11-07T00:46:32.727Z,12.00
2018-11-07T00:49:14.949Z,12.00
2018-11-07T00:51:57.272Z,11.90
2018-11-07T00:54:39.425Z,11.80
2018-11-07T00:57:21.402Z,11.70
2018-11-07T01:00:04.622Z,11.60
2018-11-07T01:02:46.925Z,11.50
2018-11-07T01:05:28.952Z,11.50
2018-11-07T01:08:11.108Z,11.40
2018-11-07T01:10:53.254Z,11.30
2018-11-07T01:13:35.365Z,11.20
2018-11-07T01:16:17.711Z,11.20
2018-11-07T01:19:00.154Z,11.10
2018-11-07T01:21:42.160Z,11.00
2018-11-07T01:24:24.672Z,11.00
2018-11-07T01:27:06.803Z,11.00
2018-11-07T01:29:48.659Z,11.00
2018-11-07T01:32:30.567Z,10.80
2018-11-07T01:35:12.667Z,10.70
2018-11-07T01:37:55.077Z,10.50
2018-11-07T01:40:37.210Z,10.40
2018-11-07T01:43:20.316Z,10.30
2018-11-07T01:46:02.630Z,10.20
2018-11-07T01:48:44.675Z,10.20
2018-11-07T01:51:26.836Z,10.20
2018-11-07T01:54:09.052Z,10.20
2018-11-07T01:56:51.280Z,10.30
2018-11-07T01:59:33.400Z,10.30
2018-11-07T02:02:15.431Z,10.10
2018-11-07T02:04:57.752Z,10.10
2018-11-07T02:07:40.427Z,10.10
2018-11-07T02:10:22.346Z,10.30
2018-11-07T02:13:04.293Z,10.30
2018-11-07T02:15:46.403Z,10.20
2018-11-07T02:18:28.514Z,10.20
2018-11-07T02:21:10.344Z,10.20
2018-11-07T02:23:52.352Z,10.20
2018-11-07T02:26:34.978Z,10.10
2018-11-07T02:29:17.418Z,10.10
2018-11-07T02:31:59.543Z,10.30
2018-11-07T02:34:42.218Z,10.40
2018-11-07T02:37:24.048Z,10.30
2018-11-07T02:40:06.376Z,10.40
2018-11-07T02:42:48.348Z,10.50
2018-11-07T02:45:30.076Z,10.50
2018-11-07T02:48:12.133Z,10.50
2018-11-07T02:50:54.030Z,10.40
2018-11-07T02:53:36.243Z,10.40
2018-11-07T02:56:18.078Z,10.30
2018-11-07T02:58:59.902Z,10.30
2018-11-07T03:01:42.073Z,10.20
2018-11-07T03:04:23.800Z,10.30
2018-11-07T03:07:06.129Z,10.20
2018-11-07T03:09:47.767Z,10.10
2018-11-07T03:12:29.380Z,10.00
2018-11-07T03:15:11.237Z,10.00
2018-11-07T03:17:53.038Z,9.80
2018-11-07T03:20:35.189Z,9.70
2018-11-07T03:23:16.873Z,9.60
2018-11-07T03:25:59.243Z,9.60
2018-11-07T03:28:40.973Z,9.50
2018-11-07T03:31:22.647Z,9.40
2018-11-07T03:34:04.793Z,9.50
2018-11-07T03:36:46.931Z,9.50
2018-11-07T03:39:28.674Z,9.60
2018-11-07T03:42:10.985Z,9.40
2018-11-07T03:44:53.135Z,9.30
2018-11-07T03:47:35.612Z,9.30
2018-11-07T03:50:17.445Z,9.20
2018-11-07T03:52:59.430Z,9.20
2018-11-07T03:55:43.096Z,9.10
2018-11-07T03:58:24.741Z,9.20
2018-11-07T04:01:07.000Z,9.20
2018-11-07T04:03:49.029Z,9.10
2018-11-07T04:06:31.169Z,9.00
2018-11-07T04:09:14.332Z,9.00
2018-11-07T04:11:56.458Z,8.90
2018-11-07T04:14:38.828Z,8.80
2018-11-07T04:17:20.305Z,8.80
2018-11-07T04:20:02.650Z,8.80
2018-11-07T04:22:44.516Z,8.90
2018-11-07T04:25:26.580Z,8.90
2018-11-07T04:28:09.046Z,8.90
2018-11-07T04:30:50.722Z,9.10
2018-11-07T04:33:32.373Z,9.10
2018-11-07T04:36:14.543Z,9.10
2018-11-07T04:38:56.652Z,9.30
2018-11-07T04:41:38.982Z,9.40
2018-11-07T04:44:21.033Z,9.40
2018-11-07T04:47:02.870Z,9.40
2018-11-07T04:49:44.536Z,9.20
2018-11-07T04:52:25.890Z,9.20
2018-11-07T04:55:07.300Z,9.30
2018-11-07T04:57:49.244Z,9.40
2018-11-07T05:00:31.345Z,9.20
2018-11-07T05:03:12.991Z,9.10
2018-11-07T05:05:55.157Z,9.00
2018-11-07T05:08:37.308Z,8.80
2018-11-07T05:11:19.255Z,8.70
2018-11-07T05:14:01.376Z,8.70
2018-11-07T05:16:43.879Z,8.60
2018-11-07T05:19:26.212Z,8.50
2018-11-07T05:22:08.733Z,8.50
2018-11-07T05:24:50.862Z,8.40
2018-11-07T05:27:33.034Z,8.40
2018-11-07T05:30:15.097Z,8.40
2018-11-07T05:32:57.186Z,8.30
2018-11-07T05:35:38.849Z,8.30
2018-11-07T05:38:21.080Z,8.40
2018-11-07T05:41:03.179Z,8.40
2018-11-07T05:43:45.461Z,8.30
2018-11-07T05:46:27.304Z,8.30
2018-11-07T05:49:09.705Z,8.20
2018-11-07T05:51:51.830Z,8.20
2018-11-07T05:54:34.077Z,8.20
2018-11-07T05:57:16.245Z,8.20
2018-11-07T05:59:58.224Z,8.10
2018-11-07T06:02:41.080Z,8.00
2018-11-07T06:05:23.225Z,8.00
2018-11-07T06:08:05.790Z,7.90
2018-11-07T06:10:47.821Z,7.90
2018-11-07T06:13:29.480Z,7.90
2018-11-07T06:16:11.519Z,7.90
2018-11-07T06:18:53.538Z,7.80
2018-11-07T06:21:36.087Z,7.90
2018-11-07T06:24:18.739Z,7.90
2018-11-07T06:27:01.439Z,8.00
2018-11-07T06:29:43.275Z,8.10
2018-11-07T06:32:24.932Z,8.20
2018-11-07T06:35:08.740Z,8.20
2018-11-07T06:37:51.332Z,8.30
2018-11-07T06:40:33.491Z,8.40
2018-11-07T06:43:15.960Z,8.50
2018-11-07T06:45:57.805Z,8.50
2018-11-07T06:48:39.608Z,8.50
2018-11-07T06:51:21.605Z,8.50
2018-11-07T06:54:03.693Z,8.60
2018-11-07T06:56:45.997Z,8.60
2018-11-07T06:59:27.887Z,8.60
2018-11-07T07:02:09.602Z,8.60
2018-11-07T07:04:51.769Z,8.70
2018-11-07T07:07:34.090Z,8.80
2018-11-07T07:10:17.690Z,9.10
2018-11-07T07:13:00.085Z,9.30
2018-11-07T07:15:41.948Z,9.50
2018-11-07T07:18:24.070Z,9.70
2018-11-07T07:21:06.417Z,9.90
2018-11-07T07:23:49.152Z,9.90
2018-11-07T07:26:30.946Z,9.90
2018-11-07T07:29:12.964Z,10.00
2018-11-07T07:31:54.925Z,10.10
2018-11-07T07:34:36.812Z,10.20
2018-11-07T07:37:18.622Z,10.40
2018-11-07T07:40:00.716Z,10.60
2018-11-07T07:42:43.665Z,10.90
2018-11-07T07:45:25.789Z,11.10
2018-11-07T07:48:08.752Z,11.30
2018-11-07T07:50:50.930Z,11.50
2018-11-07T07:53:32.857Z,11.70
2018-11-07T07:56:14.723Z,12.20
2018-11-07T07:58:56.278Z,13.70
2018-11-07T08:01:38.347Z,15.90
2018-11-07T08:04:20.333Z,17.80
2018-11-07T08:07:02.112Z,18.80
2018-11-07T08:09:43.646Z,19.30
2018-11-07T08:12:25.605Z,19.70
2018-11-07T08:15:07.532Z,20.20
2018-11-07T08:17:49.612Z,20.90
2018-11-07T08:20:31.199Z,20.70
2018-11-07T08:23:12.990Z,20.70
2018-11-07T08:25:54.549Z,20.70
2018-11-07T08:28:36.077Z,20.40
2018-11-07T08:31:17.967Z,20.60
2018-11-07T08:33:59.953Z,21.10
2018-11-07T08:36:42.005Z,21.50
2018-11-07T08:39:23.424Z,21.20
2018-11-07T08:42:05.740Z,21.40
2018-11-07T08:44:47.294Z,22.10
2018-11-07T08:47:28.860Z,21.70
2018-11-07T08:50:13.300Z,21.70
2018-11-07T08:52:55.743Z,22.10
2018-11-07T08:55:38.607Z,22.40
2018-11-07T08:58:20.504Z,22.40
2018-11-07T09:01:01.710Z,22.50
2018-11-07T09:03:43.173Z,23.00
2018-11-07T09:06:25.120Z,23.80
2018-11-07T09:09:11.108Z,23.60
2018-11-07T09:11:52.964Z,23.30
2018-11-07T09:14:34.845Z,23.50
2018-11-07T09:17:17.012Z,23.70
2018-11-07T09:19:58.524Z,23.90
2018-11-07T09:22:40.886Z,23.50
2018-11-07T09:25:24.102Z,22.50
2018-11-07T09:28:05.769Z,22.70
2018-11-07T09:30:48.371Z,22.20
2018-11-07T09:33:31.053Z,22.30
2018-11-07T09:36:13.102Z,22.70
2018-11-07T09:38:55.606Z,22.50
2018-11-07T09:41:37.793Z,22.80
2018-11-07T09:44:20.974Z,22.60
2018-11-07T09:47:04.632Z,23.00
2018-11-07T09:49:50.002Z,22.70
2018-11-07T09:52:32.088Z,22.50
2018-11-07T09:55:15.511Z,22.30
2018-11-07T09:57:57.423Z,22.00
2018-11-07T10:00:39.625Z,22.10
2018-11-07T10:03:21.034Z,22.30
2018-11-07T10:06:02.800Z,21.90
2018-11-07T10:08:44.957Z,22.20
2018-11-07T10:11:27.056Z,22.30
2018-11-07T10:14:09.457Z,22.10
2018-11-07T10:16:51.325Z,21.10
2018-11-07T10:19:33.017Z,20.60
2018-11-07T10:22:14.706Z,21.10
2018-11-07T10:24:56.015Z,21.40
2018-11-07T10:27:37.584Z,21.40
2018-11-07T10:30:20.144Z,22.00
2018-11-07T10:33:01.899Z,22.60
2018-11-07T10:35:43.811Z,23.70
2018-11-07T10:38:25.762Z,24.40
2018-11-07T10:41:07.813Z,25.10
2018-11-07T10:43:49.809Z,25.30
2018-11-07T10:46:31.724Z,25.20
2018-11-07T10:49:13.849Z,24.90
2018-11-07T10:51:55.470Z,24.80
2018-11-07T10:54:37.446Z,24.20
2018-11-07T10:57:19.226Z,23.50
2018-11-07T11:00:00.968Z,23.20
2018-11-07T11:02:46.530Z,23.70
2018-11-07T11:05:27.919Z,23.70
2018-11-07T11:08:09.652Z,23.90
2018-11-07T11:10:51.850Z,23.50
2018-11-07T11:13:33.646Z,22.80
2018-11-07T11:16:15.408Z,22.40
2018-11-07T11:18:57.353Z,22.80
2018-11-07T11:21:39.084Z,22.90
2018-11-07T11:24:20.427Z,22.90
2018-11-07T11:27:02.104Z,22.60
2018-11-07T11:29:43.830Z,23.30
2018-11-07T11:32:25.509Z,23.80
2018-11-07T11:35:09.303Z,24.00
2018-11-07T11:37:51.633Z,24.30
2018-11-07T11:40:33.085Z,24.20
2018-11-07T11:43:15.699Z,23.80
2018-11-07T11:45:57.725Z,24.20
2018-11-07T11:48:39.640Z,24.50
2018-11-07T11:51:21.143Z,24.50
2018-11-07T11:54:03.179Z,23.80
2018-11-07T11:56:46.456Z,23.40
2018-11-07T11:59:28.271Z,23.00
2018-11-07T12:02:10.161Z,22.60
2018-11-07T12:04:51.657Z,22.50
2018-11-07T12:07:33.507Z,22.60
2018-11-07T12:10:20.320Z,23.10
2018-11-07T12:13:02.133Z,23.60
2018-11-07T12:15:44.925Z,23.80
2018-11-07T12:18:26.887Z,24.00
2018-11-07T12:21:08.562Z,24.20
2018-11-07T12:23:50.979Z,24.10
2018-11-07T12:26:33.027Z,24.20
2018-11-07T12:29:14.418Z,24.50
2018-11-07T12:31:56.169Z,24.60
2018-11-07T12:34:38.741Z,23.80
2018-11-07T12:37:21.114Z,23.30
2018-11-07T12:40:02.877Z,22.90
2018-11-07T12:42:44.622Z,22.60
2018-11-07T12:45:26.790Z,22.40
2018-11-07T12:48:09.084Z,22.10
2018-11-07T12:50:50.502Z,21.70
2018-11-07T12:53:32.393Z,21.60
2018-11-07T12:56:14.592Z,20.60
2018-11-07T12:58:56.359Z,20.00
2018-11-07T13:01:37.768Z,20.30
2018-11-07T13:04:19.497Z,20.90
2018-11-07T13:07:01.565Z,21.00
2018-11-07T13:09:42.970Z,20.70
2018-11-07T13:12:24.849Z,20.80
2018-11-07T13:15:07.658Z,20.80
2018-11-07T13:17:50.330Z,20.40
2018-11-07T13:20:32.392Z,20.10
2018-11-07T13:23:13.834Z,19.70
2018-11-07T13:25:55.547Z,19.70
2018-11-07T13:28:37.175Z,19.50
2018-11-07T13:31:19.173Z,19.10
2018-11-07T13:34:00.754Z,19.10
2018-11-07T13:36:42.563Z,19.10
2018-11-07T13:39:24.815Z,18.90
2018-11-07T13:42:09.565Z,19.20
2018-11-07T13:44:52.119Z,19.20
2018-11-07T13:47:35.154Z,19.40
2018-11-07T13:50:16.934Z,19.40
2018-11-07T13:52:58.796Z,19.50
2018-11-07T13:55:40.799Z,19.30
2018-11-07T13:58:22.509Z,19.10
2018-11-07T14:01:04.058Z,18.40
2018-11-07T14:03:45.564Z,17.90
2018-11-07T14:06:27.377Z,17.70
2018-11-07T14:09:10.913Z,17.50
2018-11-07T14:11:52.658Z,17.30
2018-11-07T14:14:34.728Z,16.90
2018-11-07T14:17:16.176Z,16.60
2018-11-07T14:19:57.713Z,16.30
2018-11-07T14:22:40.677Z,16.00
2018-11-07T14:25:22.466Z,15.60
2018-11-07T14:28:04.826Z,15.40
2018-11-07T14:30:47.302Z,15.10
2018-11-07T14:33:29.375Z,15.00
2018-11-07T14:36:11.324Z,14.80
2018-11-07T14:38:53.115Z,14.70
2018-11-07T14:41:35.367Z,14.70
2018-11-07T14:44:16.837Z,14.60
2018-11-07T14:46:58.538Z,14.50
2018-11-07T14:49:40.448Z,14.40
2018-11-07T14:52:22.627Z,14.30
2018-11-07T14:55:05.074Z,14.20
2018-11-07T14:57:46.506Z,14.20
2018-11-07T15:00:28.461Z,14.20
2018-11-07T15:03:10.093Z,14.10
2018-11-07T15:05:51.708Z,14.00
2018-11-07T15:08:33.377Z,14.00
2018-11-07T15:11:15.007Z,13.90
2018-11-07T15:13:56.639Z,13.90
2018-11-07T15:16:39.829Z,13.80
2018-11-07T15:19:21.934Z,13.70
2018-11-07T15:22:03.876Z,13.70
2018-11-07T15:24:45.949Z,13.60
2018-11-07T15:27:27.512Z,13.50
2018-11-07T15:30:10.948Z,13.50
2018-11-07T15:32:52.497Z,13.40
2018-11-07T15:35:33.911Z,13.30
2018-11-07T15:38:15.767Z,13.20
2018-11-07T15:40:57.906Z,13.20
2018-11-07T15:43:39.772Z,13.10
2018-11-07T15:46:21.600Z,13.00
2018-11-07T15:49:03.146Z,13.00
2018-11-07T15:51:44.539Z,12.90
2018-11-07T15:54:26.684Z,12.80
2018-11-07T15:57:08.700Z,12.80
2018-11-07T15:59:50.557Z,12.80
2018-11-07T16:02:33.068Z,12.80
2018-11-07T16:05:15.483Z,12.80
2018-11-07T16:07:58.052Z,12.70
2018-11-07T16:10:39.469Z,12.50
2018-11-07T16:13:21.666Z,12.40
2018-11-07T16:16:05.521Z,12.40
2018-11-07T16:18:47.185Z,12.50
2018-11-07T16:21:29.268Z,12.40
2018-11-07T16:24:11.620Z,12.20
2018-11-07T16:26:53.568Z,12.10
2018-11-07T16:29:35.216Z,12.00
2018-11-07T16:32:17.079Z,12.00
2018-11-07T16:35:00.526Z,12.00
2018-11-07T16:37:42.827Z,11.90
2018-11-07T16:40:25.074Z,11.80
2018-11-07T16:43:07.438Z,11.80
2018-11-07T16:45:50.854Z,11.80
2018-11-07T16:48:33.385Z,11.90
2018-11-07T16:51:18.329Z,12.00
2018-11-07T16:54:01.013Z,11.80
2018-11-07T16:56:50.092Z,11.80
2018-11-07T16:59:32.355Z,11.70
2018-11-07T17:02:16.561Z,11.70
2018-11-07T17:05:02.847Z,11.60
2018-11-07T17:07:44.978Z,11.70
2018-11-07T17:10:27.156Z,11.70
2018-11-07T17:13:10.398Z,11.60
2018-11-07T17:15:52.553Z,11.60
2018-11-07T17:18:34.409Z,11.60
2018-11-07T17:21:16.117Z,11.50
2018-11-07T17:23:58.797Z,11.40
2018-11-07T17:26:41.030Z,11.30
2018-11-07T17:29:23.632Z,11.30
2018-11-07T17:32:07.127Z,11.30
2018-11-07T17:34:49.144Z,11.40
2018-11-07T17:37:30.856Z,11.30
2018-11-07T17:40:16.596Z,11.40
2018-11-07T17:42:58.668Z,11.40
2018-11-07T17:45:40.325Z,11.20
2018-11-07T17:48:22.382Z,11.10
2018-11-07T17:51:04.844Z,11.00
2018-11-07T17:53:46.670Z,11.10
2018-11-07T17:56:28.421Z,11.10
2018-11-07T17:59:11.301Z,11.10
2018-11-07T18:01:53.729Z,10.90
2018-11-07T18:04:35.603Z,10.80
2018-11-07T18:07:18.467Z,10.70
2018-11-07T18:10:00.663Z,10.60
2018-11-07T18:12:43.135Z,10.50
2018-11-07T18:15:26.072Z,10.40
2018-11-07T18:18:08.090Z,10.30
2018-11-07T18:20:50.462Z,10.30
2018-11-07T18:23:32.957Z,10.30
2018-11-07T18:26:14.740Z,10.30
2018-11-07T18:28:56.632Z,10.30
2018-11-07T18:31:38.714Z,10.20
2018-11-07T18:34:20.657Z,10.20
2018-11-07T18:37:03.184Z,10.20
2018-11-07T18:39:44.861Z,10.10
2018-11-07T18:42:26.571Z,10.00
2018-11-07T18:45:10.295Z,10.00
2018-11-07T18:47:52.119Z,9.90
2018-11-07T18:50:33.988Z,9.80
2018-11-07T18:53:16.854Z,9.80
2018-11-07T18:55:58.491Z,9.80
2018-11-07T18:58:40.435Z,9.70
2018-11-07T19:01:22.848Z,9.70
2018-11-07T19:04:05.030Z,9.70
2018-11-07T19:06:46.933Z,9.70
2018-11-07T19:09:29.199Z,9.80
2018-11-07T19:12:11.249Z,9.90
2018-11-07T19:14:53.294Z,10.00
2018-11-07T19:17:35.086Z,10.20
2018-11-07T19:20:18.267Z,10.20
2018-11-07T19:23:00.720Z,10.20
2018-11-07T19:25:43.678Z,10.10
2018-11-07T19:28:25.906Z,10.00
2018-11-07T19:31:08.162Z,9.80
2018-11-07T19:33:51.534Z,9.70
2018-11-07T19:36:33.853Z,9.60
2018-11-07T19:39:15.731Z,9.50
2018-11-07T19:41:57.821Z,9.50
2018-11-07T19:44:40.031Z,9.40
2018-11-07T19:47:22.229Z,9.50
2018-11-07T19:50:04.504Z,9.50
2018-11-07T19:52:47.788Z,9.40
2018-11-07T19:55:30.294Z,9.30
2018-11-07T19:58:12.534Z,9.20
2018-11-07T20:00:54.330Z,9.30
2018-11-07T20:03:36.633Z,9.30
2018-11-07T20:06:18.461Z,9.30
2018-11-07T20:09:00.659Z,9.20
2018-11-07T20:11:42.536Z,9.30
2018-11-07T20:14:24.224Z,9.20
2018-11-07T20:17:06.352Z,9.30
2018-11-07T20:19:49.000Z,9.30
2018-11-07T20:22:30.954Z,9.30
2018-11-07T20:25:14.057Z,9.30
2018-11-07T20:27:56.253Z,9.10
2018-11-07T20:30:37.955Z,9.00
2018-11-07T20:33:20.050Z,9.00
2018-11-07T20:36:02.221Z,8.90
2018-11-07T20:38:44.098Z,8.90
2018-11-07T20:41:25.908Z,8.80
2018-11-07T20:44:09.468Z,8.70
2018-11-07T20:46:51.268Z,8.70
2018-11-07T20:49:32.898Z,8.60
2018-11-07T20:52:14.901Z,8.60
2018-11-07T20:54:56.695Z,8.70
2018-11-07T20:57:38.928Z,8.70
2018-11-07T21:00:22.840Z,8.70
2018-11-07T21:03:04.515Z,8.60
2018-11-07T21:05:46.923Z,8.60
2018-11-07T21:08:28.747Z,8.60
2018-11-07T21:11:10.581Z,8.70
2018-11-07T21:13:53.672Z,8.80
2018-11-07T21:16:35.913Z,8.70
2018-11-07T21:19:18.318Z,8.60
2018-11-07T21:22:00.635Z,8.60
2018-11-07T21:24:42.478Z,8.80
2018-11-07T21:27:55.513Z,8.80
2018-11-07T21:30:38.143Z,8.70
2018-11-07T21:33:20.516Z,8.70
2018-11-07T21:36:02.986Z,8.60
2018-11-07T21:38:44.985Z,8.70
2018-11-07T21:41:27.304Z,8.70
2018-11-07T21:44:09.163Z,8.70
2018-11-07T21:46:50.997Z,8.50
2018-11-07T21:49:32.654Z,8.40
2018-11-07T21:52:14.686Z,8.40
2018-11-07T21:54:56.494Z,8.50
2018-11-07T21:57:38.905Z,8.50
2018-11-07T22:00:21.194Z,8.50
2018-11-07T22:03:03.823Z,8.40
2018-11-07T22:05:45.967Z,8.50
2018-11-07T22:08:28.497Z,8.40
2018-11-07T22:11:10.348Z,8.50
2018-11-07T22:13:52.590Z,8.40
2018-11-07T22:16:34.713Z,8.40
2018-11-07T22:19:16.114Z,8.40
2018-11-07T22:21:58.191Z,8.30
2018-11-07T22:24:39.992Z,8.40
2018-11-07T22:27:22.085Z,8.30
2018-11-07T22:30:04.352Z,8.30
2018-11-07T22:32:46.081Z,8.30
2018-11-07T22:35:28.061Z,8.30
2018-11-07T22:38:10.220Z,8.30
2018-11-07T22:40:52.356Z,8.20
2018-11-07T22:43:34.382Z,8.20
2018-11-07T22:46:16.490Z,8.20
2018-11-07T22:48:58.480Z,8.20
2018-11-07T22:51:40.581Z,8.20
2018-11-07T22:54:22.276Z,8.20
2018-11-07T22:57:04.651Z,8.10
2018-11-07T22:59:46.826Z,8.10
2018-11-07T23:02:28.722Z,8.00
2018-11-07T23:05:10.781Z,8.00
2018-11-07T23:07:53.123Z,8.00
2018-11-07T23:10:35.581Z,8.00
2018-11-07T23:13:17.575Z,8.00
2018-11-07T23:15:59.716Z,8.00
2018-11-07T23:18:41.488Z,8.00
2018-11-07T23:21:23.194Z,7.90
2018-11-07T23:24:05.940Z,7.90
2018-11-07T23:26:48.741Z,7.90
2018-11-07T23:29:30.309Z,8.00
2018-11-07T23:32:12.589Z,8.00
2018-11-07T23:34:54.391Z,7.90
2018-11-07T23:37:36.689Z,7.90
2018-11-07T23:40:19.239Z,7.80
2018-11-07T23:43:01.136Z,7.80
2018-11-07T23:45:43.109Z,7.80
2018-11-07T23:48:24.988Z,7.90
2018-11-07T23:51:07.208Z,7.90
2018-11-07T23:53:48.867Z,7.80
2018-11-07T23:56:30.832Z,7.80
2018-11-07T23:59:12.609Z,7.70
